createdAt,value
2022-11-06T00:04:36.152Z,2.25
2022-11-06T00:09:44.025Z,2.40
2022-11-06T00:14:50.010Z,3.53
2022-11-06T00:19:56.197Z,3.45
2022-11-06T00:25:07.572Z,2.58
2022-11-06T00:30:14.486Z,2.50
2022-11-06T00:35:21.060Z,3.13
2022-11-06T00:40:28.895Z,2.40
2022-11-06T00:45:35.218Z,2.60
2022-11-06T00:50:41.471Z,3.13
2022-11-06T00:55:49.310Z,2.80
2022-11-06T01:00:55.786Z,2.70
2022-11-06T01:06:09.331Z,2.30
2022-11-06T01:11:20.105Z,2.83
2022-11-06T01:16:27.787Z,1.83
2022-11-06T01:21:37.379Z,2.85
2022-11-06T01:27:12.039Z,1.88
2022-11-06T01:32:12.818Z,1.88
2022-11-06T01:37:19.025Z,2.88
2022-11-06T01:42:26.639Z,2.25
2022-11-06T01:47:32.821Z,2.22
2022-11-06T01:52:40.187Z,2.20
2022-11-06T01:57:49.021Z,1.85
2022-11-06T02:02:55.458Z,2.13
2022-11-06T02:08:03.068Z,2.90
2022-11-06T02:13:26.315Z,2.08
2022-11-06T02:19:11.807Z,1.70
2022-11-06T02:25:10.380Z,1.60
2022-11-06T02:30:20.056Z,2.17
2022-11-06T02:35:31.694Z,1.58
2022-11-06T02:40:44.558Z,2.60
2022-11-06T02:45:58.628Z,1.50
2022-11-06T02:51:06.952Z,1.52
2022-11-06T02:56:16.796Z,1.77
2022-11-06T03:01:31.189Z,3.08
2022-11-06T03:06:43.546Z,2.97
2022-11-06T03:11:59.220Z,2.90
2022-11-06T03:17:13.994Z,3.33
2022-11-06T03:22:29.889Z,2.45
2022-11-06T03:27:42.248Z,3.67
2022-11-06T03:32:55.527Z,2.17
2022-11-06T03:38:07.112Z,1.90
2022-11-06T03:43:18.982Z,2.50
2022-11-06T03:48:33.801Z,2.63
2022-11-06T03:53:48.183Z,2.50
2022-11-06T03:58:55.495Z,2.13
2022-11-06T04:04:08.628Z,2.20
2022-11-06T04:09:35.334Z,2.67
2022-11-06T04:14:47.150Z,2.40
2022-11-06T04:19:58.778Z,3.00
2022-11-06T04:25:34.670Z,2.75
2022-11-06T04:30:55.455Z,2.72
2022-11-06T04:36:12.728Z,2.60
2022-11-06T04:41:34.919Z,3.15
2022-11-06T04:46:48.525Z,2.83
2022-11-06T04:51:57.253Z,2.55
2022-11-06T04:57:05.312Z,3.10
2022-11-06T05:02:13.188Z,3.50
2022-11-06T05:07:21.497Z,3.10
2022-11-06T05:12:28.112Z,4.00
2022-11-06T05:17:36.616Z,3.95
2022-11-06T05:23:05.332Z,3.53
2022-11-06T05:28:12.282Z,4.57
2022-11-06T05:33:18.588Z,4.88
2022-11-06T05:38:26.245Z,5.55
2022-11-06T05:43:32.421Z,6.32
2022-11-06T05:48:38.600Z,5.43
2022-11-06T05:53:46.298Z,5.00
2022-11-06T05:58:52.485Z,4.55
2022-11-06T06:03:59.046Z,4.40
2022-11-06T06:09:07.120Z,3.97
2022-11-06T06:14:13.457Z,4.72
2022-11-06T06:19:19.854Z,4.05
2022-11-06T06:24:27.766Z,4.32
2022-11-06T06:29:34.650Z,3.75
2022-11-06T06:34:40.914Z,3.50
2022-11-06T06:39:49.151Z,3.88
2022-11-06T06:44:55.597Z,3.57
2022-11-06T06:50:02.418Z,3.30
2022-11-06T06:55:11.708Z,3.78
2022-11-06T07:00:18.718Z,3.97
2022-11-06T07:05:25.129Z,4.05
2022-11-06T07:10:34.815Z,3.78
2022-11-06T07:20:46.466Z,4.00
2022-11-06T07:25:56.534Z,3.80
2022-11-06T07:31:04.342Z,4.07
2022-11-06T07:36:13.751Z,4.10
2022-11-06T07:41:21.315Z,4.18
2022-11-06T07:46:27.514Z,4.75
2022-11-06T07:51:33.702Z,5.43
2022-11-06T07:56:41.432Z,4.80
2022-11-06T08:01:47.913Z,5.57
2022-11-06T08:06:54.370Z,5.38
2022-11-06T08:12:02.234Z,5.15
2022-11-06T08:17:08.485Z,5.88
2022-11-06T08:22:14.604Z,4.97
2022-11-06T08:27:22.370Z,4.57
2022-11-06T08:32:29.844Z,4.95
2022-11-06T08:37:36.077Z,5.13
2022-11-06T08:42:43.786Z,5.55
2022-11-06T08:47:50.124Z,4.72
2022-11-06T08:52:58.919Z,6.63
2022-11-06T08:58:07.515Z,6.80
2022-11-06T09:03:16.880Z,5.82
2022-11-06T09:08:24.553Z,6.07
2022-11-06T09:13:32.296Z,6.43
2022-11-06T09:18:38.742Z,6.50
2022-11-06T09:23:46.472Z,8.57
2022-11-06T09:28:54.516Z,7.65
2022-11-06T09:34:01.143Z,8.45
2022-11-06T09:39:07.573Z,9.65
2022-11-06T09:44:38.974Z,8.65
2022-11-06T09:49:51.735Z,7.60
2022-11-06T09:55:03.222Z,9.93
2022-11-06T10:00:16.438Z,8.70
2022-11-06T10:05:29.075Z,7.15
2022-11-06T10:10:44.499Z,6.57
2022-11-06T10:16:04.494Z,7.53
2022-11-06T10:21:18.288Z,6.72
2022-11-06T10:26:36.679Z,7.22
2022-11-06T10:31:58.033Z,6.43
2022-11-06T10:37:10.392Z,6.20
2022-11-06T10:42:21.745Z,7.47
2022-11-06T10:47:35.430Z,7.68
2022-11-06T10:52:57.257Z,6.03
2022-11-06T10:58:07.495Z,4.75
2022-11-06T11:03:29.891Z,5.88
2022-11-06T11:08:41.901Z,6.40
2022-11-06T11:13:52.157Z,7.10
2022-11-06T11:19:25.211Z,6.05
2022-11-06T11:24:32.073Z,5.90
2022-11-06T11:29:48.483Z,5.03
2022-11-06T11:34:58.875Z,5.82
2022-11-06T11:40:37.150Z,4.78
2022-11-06T11:45:43.840Z,5.50
2022-11-06T11:50:52.007Z,5.18
2022-11-06T11:55:58.826Z,5.73
2022-11-06T12:01:09.654Z,6.47
2022-11-06T12:06:21.188Z,6.40
2022-11-06T12:11:32.232Z,6.50
2022-11-06T12:16:39.813Z,6.40
2022-11-06T12:21:52.709Z,7.28
2022-11-06T12:27:07.318Z,7.15
2022-11-06T12:32:28.699Z,7.07
2022-11-06T12:37:51.409Z,5.75
2022-11-06T12:43:11.541Z,6.78
2022-11-06T12:48:46.138Z,6.63
2022-11-06T12:54:13.480Z,6.63
2022-11-06T12:59:39.194Z,6.88
2022-11-06T13:04:56.577Z,6.97
2022-11-06T13:10:28.349Z,7.00
2022-11-06T13:15:43.476Z,6.22
2022-11-06T13:20:58.406Z,6.35
2022-11-06T13:26:19.312Z,6.68
2022-11-06T13:31:36.948Z,7.35
2022-11-06T13:36:43.956Z,6.20
2022-11-06T13:41:54.096Z,5.72
2022-11-06T13:47:10.822Z,4.97
2022-11-06T13:52:26.293Z,4.72
2022-11-06T13:58:19.414Z,6.30
2022-11-06T14:04:03.242Z,5.30
2022-11-06T14:09:21.037Z,5.20
2022-11-06T14:14:33.229Z,5.88
2022-11-06T14:19:42.398Z,4.97
2022-11-06T14:24:53.822Z,4.97
2022-11-06T14:30:08.956Z,5.07
2022-11-06T14:35:52.181Z,5.07
2022-11-06T14:41:00.539Z,5.95
2022-11-06T14:46:22.605Z,4.53
2022-11-06T14:51:31.431Z,5.68
2022-11-06T14:56:39.924Z,6.32
2022-11-06T15:02:00.128Z,7.72
2022-11-06T15:07:50.923Z,6.47
2022-11-06T15:13:13.192Z,6.82
2022-11-06T15:18:24.864Z,7.07
2022-11-06T15:23:41.243Z,7.78
2022-11-06T15:28:52.680Z,9.73
2022-11-06T15:34:05.073Z,11.85
2022-11-06T15:39:35.131Z,9.45
2022-11-06T15:44:43.607Z,13.52
2022-11-06T15:50:07.273Z,11.93
2022-11-06T15:55:23.665Z,12.38
2022-11-06T16:00:30.869Z,13.02
2022-11-06T16:05:39.813Z,13.32
2022-11-06T16:10:50.110Z,12.85
2022-11-06T16:15:59.568Z,15.52
2022-11-06T16:21:16.925Z,14.98
2022-11-06T16:26:28.429Z,13.27
2022-11-06T16:31:39.604Z,13.90
2022-11-06T16:37:01.083Z,17.80
2022-11-06T16:42:31.386Z,16.90
2022-11-06T16:47:38.386Z,21.38
2022-11-06T16:52:54.526Z,11.82
2022-11-06T16:58:03.921Z,17.08
2022-11-06T17:03:23.238Z,13.18
2022-11-06T17:08:39.998Z,18.40
2022-11-06T17:13:49.273Z,14.02
2022-11-06T17:18:56.613Z,14.88
2022-11-06T17:24:31.161Z,14.38
2022-11-06T17:34:41.768Z,12.47
2022-11-06T17:39:50.930Z,14.43
2022-11-06T17:44:57.883Z,16.85
2022-11-06T17:50:05.623Z,16.42
2022-11-06T17:55:16.549Z,20.60
2022-11-06T18:00:24.486Z,17.13
2022-11-06T18:05:31.838Z,16.15
2022-11-06T18:10:41.893Z,20.40
2022-11-06T18:15:49.590Z,21.85
2022-11-06T18:20:59.957Z,20.55
2022-11-06T18:26:09.595Z,18.17
2022-11-06T18:31:17.528Z,15.60
2022-11-06T18:36:25.087Z,16.95
2022-11-06T18:41:36.483Z,15.38
2022-11-06T18:46:44.974Z,15.32
2022-11-06T18:51:52.428Z,18.42
2022-11-06T18:57:00.995Z,15.38
2022-11-06T19:02:08.537Z,17.77
2022-11-06T19:07:16.759Z,17.30
2022-11-06T19:12:27.571Z,17.25
2022-11-06T19:17:36.214Z,17.00
2022-11-06T19:22:50.076Z,18.00
2022-11-06T19:27:59.756Z,16.48
2022-11-06T19:33:08.519Z,17.63
2022-11-06T19:38:16.155Z,15.43
2022-11-06T19:43:25.601Z,16.43
2022-11-06T19:48:34.573Z,16.30
2022-11-06T19:53:42.642Z,12.87
2022-11-06T19:58:53.924Z,15.77
2022-11-06T20:04:03.655Z,12.65
2022-11-06T20:09:11.926Z,13.70
2022-11-06T20:14:22.684Z,18.50
2022-11-06T20:19:32.986Z,16.60
2022-11-06T20:24:41.808Z,15.77
2022-11-06T20:29:50.874Z,16.48
2022-11-06T20:34:57.863Z,17.20
2022-11-06T20:40:05.858Z,16.63
2022-11-06T20:45:14.633Z,16.52
2022-11-06T20:50:22.341Z,17.35
2022-11-06T20:55:29.510Z,15.88
2022-11-06T21:00:41.893Z,16.63
2022-11-06T21:05:49.621Z,14.57
2022-11-06T21:11:03.300Z,18.38
2022-11-06T21:16:18.242Z,17.90
2022-11-06T21:21:28.442Z,23.27
2022-11-06T21:26:37.706Z,15.77
2022-11-06T21:31:49.200Z,16.77
2022-11-06T21:37:01.218Z,15.13
2022-11-06T21:42:08.957Z,22.35
2022-11-06T21:47:16.847Z,20.52
2022-11-06T21:52:41.538Z,16.50
2022-11-06T21:57:47.723Z,16.65
2022-11-06T22:02:55.493Z,18.77
2022-11-06T22:08:02.522Z,15.63
2022-11-06T22:13:08.749Z,14.98
2022-11-06T22:18:16.715Z,14.02
2022-11-06T22:23:23.016Z,13.73
2022-11-06T22:28:29.406Z,14.40
2022-11-06T22:33:37.464Z,16.20
2022-11-06T22:38:45.671Z,14.93
2022-11-06T22:43:52.508Z,15.10
2022-11-06T22:49:00.852Z,15.57
2022-11-06T22:54:07.461Z,15.77
2022-11-06T22:59:14.647Z,14.35
2022-11-06T23:04:22.232Z,15.02
2022-11-06T23:09:28.874Z,15.77
2022-11-06T23:14:35.257Z,15.68
2022-11-06T23:19:43.124Z,15.52
2022-11-06T23:24:49.440Z,18.52
2022-11-06T23:30:00.724Z,25.17
2022-11-06T23:35:16.942Z,24.25
2022-11-06T23:40:23.827Z,23.98
2022-11-06T23:45:47.523Z,25.13
2022-11-06T23:50:55.134Z,23.00
2022-11-06T23:56:06.064Z,21.05
